Time;durP1;ratioP1;P1;durP2;ratioP2;P2;SDS_P1;SDS_P2;PMS_P1;PMS_P2;Temp;Humidity;BMP_temperature;BMP_pressure;BME280_temperature;BME280_humidity;BME280_pressure;Samples;Min_cycle;Max_cycle;Signal;HPM_P1;HPM_P2
2023/09/08 00:00:03;;;;;;;2.80;2.58;;;;;;;;;;5022653;28;20045;-61
2023/09/08 00:02:29;;;;;;;2.10;2.00;;;;;;;;;;5019797;28;20449;-59
2023/09/08 00:04:55;;;;;;;2.67;2.13;;;;;;;;;;5023281;28;20447;-60
2023/09/08 00:07:22;;;;;;;2.13;2.03;;;;;;;;;;5023607;28;20076;-60
2023/09/08 00:09:48;;;;;;;2.17;2.08;;;;;;;;;;5023849;28;20060;-61
2023/09/08 00:12:14;;;;;;;2.13;2.03;;;;;;;;;;5024527;28;20076;-60
2023/09/08 00:14:40;;;;;;;2.33;2.13;;;;;;;;;;5024425;28;20087;-60
2023/09/08 00:17:06;;;;;;;2.05;1.95;;;;;;;;;;5025965;28;20095;-60
2023/09/08 00:19:32;;;;;;;2.15;1.95;;;;;;;;;;5021904;28;20099;-61
2023/09/08 00:21:59;;;;;;;2.65;2.45;;;;;;;;;;5024469;28;20043;-60
2023/09/08 00:24:25;;;;;;;1.90;1.80;;;;;;;;;;5022175;28;20499;-60
2023/09/08 00:26:51;;;;;;;2.50;2.30;;;;;;;;;;5023353;28;20034;-60
2023/09/08 00:29:17;;;;;;;2.20;2.05;;;;;;;;;;5024354;28;20045;-60
2023/09/08 00:31:43;;;;;;;1.98;1.83;;;;;;;;;;5022935;28;20489;-60
2023/09/08 00:34:09;;;;;;;2.47;2.28;;;;;;;;;;5025576;28;20044;-61
2023/09/08 00:36:37;;;;;;;2.10;1.90;;;;;;;;;;5024599;28;20442;-60
2023/09/08 00:39:03;;;;;;;1.95;1.85;;;;;;;;;;5028171;28;20038;-61
2023/09/08 00:41:29;;;;;;;2.28;2.08;;;;;;;;;;5028407;28;20489;-60
2023/09/08 00:43:55;;;;;;;1.90;1.80;;;;;;;;;;5027832;28;20147;-60
2023/09/08 00:46:21;;;;;;;1.90;1.80;;;;;;;;;;5027610;28;20132;-60
2023/09/08 00:48:47;;;;;;;1.90;1.80;;;;;;;;;;5028936;28;20125;-61
2023/09/08 00:51:14;;;;;;;1.70;1.60;;;;;;;;;;5026756;28;20095;-60
2023/09/08 00:53:40;;;;;;;2.03;1.92;;;;;;;;;;5028903;28;20041;-60
2023/09/08 00:56:06;;;;;;;2.08;1.85;;;;;;;;;;5026908;28;20033;-60
2023/09/08 00:58:32;;;;;;;2.58;2.38;;;;;;;;;;5028431;28;20038;-60
2023/09/08 01:00:58;;;;;;;2.47;2.28;;;;;;;;;;5027735;28;20037;-60
2023/09/08 01:03:25;;;;;;;2.70;2.50;;;;;;;;;;5028692;28;20158;-60
2023/09/08 01:05:51;;;;;;;2.95;2.75;;;;;;;;;;5022768;28;20120;-60
2023/09/08 01:08:18;;;;;;;2.83;2.60;;;;;;;;;;5025562;28;20045;-60
2023/09/08 01:10:44;;;;;;;3.03;2.80;;;;;;;;;;5027305;28;20470;-60
2023/09/08 01:13:10;;;;;;;3.22;2.95;;;;;;;;;;5027527;28;20057;-60
2023/09/08 01:15:37;;;;;;;2.92;2.55;;;;;;;;;;5026040;28;20568;-60
2023/09/08 01:18:03;;;;;;;2.75;2.55;;;;;;;;;;5027139;28;20041;-61
2023/09/08 01:20:41;;;;;;;3.03;2.83;;;;;;;;;;5028237;28;20472;-61
2023/09/08 01:23:19;;;;;;;2.60;2.40;;;;;;;;;;5025417;28;20037;-60
2023/09/08 01:26:06;;;;;;;2.78;2.58;;;;;;;;;;5027052;28;20038;-60
2023/09/08 01:28:32;;;;;;;2.83;2.63;;;;;;;;;;5025787;28;20128;-60
2023/09/08 01:30:59;;;;;;;2.72;2.53;;;;;;;;;;5027810;28;20052;-60
2023/09/08 01:33:25;;;;;;;3.10;2.30;;;;;;;;;;5027626;28;20462;-60
2023/09/08 01:35:51;;;;;;;2.30;2.10;;;;;;;;;;5027203;28;20073;-60
2023/09/08 01:38:17;;;;;;;2.55;2.35;;;;;;;;;;5023038;28;20044;-60
2023/09/08 01:40:43;;;;;;;2.20;2.00;;;;;;;;;;5024038;28;20037;-61
2023/09/08 01:43:10;;;;;;;1.90;1.80;;;;;;;;;;5027141;28;20041;-60
2023/09/08 01:45:36;;;;;;;3.47;2.40;;;;;;;;;;5027376;28;20069;-61
2023/09/08 01:48:02;;;;;;;2.65;2.45;;;;;;;;;;5027420;28;20049;-60
2023/09/08 01:50:28;;;;;;;2.28;2.08;;;;;;;;;;5026485;28;20119;-60
2023/09/08 01:52:54;;;;;;;2.15;2.05;;;;;;;;;;5020236;28;20049;-60
2023/09/08 01:55:20;;;;;;;2.13;1.95;;;;;;;;;;5026295;28;20041;-60
2023/09/08 01:57:46;;;;;;;2.50;2.30;;;;;;;;;;5024189;28;20409;-59
2023/09/08 02:00:12;;;;;;;2.47;2.28;;;;;;;;;;5027228;28;20466;-60
2023/09/08 02:02:39;;;;;;;1.95;1.85;;;;;;;;;;5027748;28;20041;-60
2023/09/08 02:05:05;;;;;;;2.85;2.38;;;;;;;;;;5026532;28;20144;-60
2023/09/08 02:07:31;;;;;;;2.25;2.15;;;;;;;;;;5020683;28;20076;-60
2023/09/08 02:09:57;;;;;;;2.20;2.00;;;;;;;;;;5025798;28;20557;-60
2023/09/08 02:12:23;;;;;;;2.90;1.85;;;;;;;;;;5025639;28;21642;-60
2023/09/08 02:14:49;;;;;;;2.08;1.88;;;;;;;;;;5026703;28;20049;-60
2023/09/08 02:17:15;;;;;;;1.80;1.70;;;;;;;;;;5025562;28;20144;-60
2023/09/08 02:19:41;;;;;;;1.88;1.77;;;;;;;;;;5027161;28;20068;-60
2023/09/08 02:22:07;;;;;;;2.00;1.90;;;;;;;;;;5027464;28;20037;-60
2023/09/08 02:24:33;;;;;;;1.98;1.88;;;;;;;;;;5025267;28;20888;-60
2023/09/08 02:26:59;;;;;;;1.98;1.88;;;;;;;;;;5025865;28;20045;-61
2023/09/08 02:29:25;;;;;;;1.90;1.80;;;;;;;;;;5027034;28;20045;-60
2023/09/08 02:31:51;;;;;;;1.73;1.63;;;;;;;;;;5025585;28;20671;-60
2023/09/08 02:34:17;;;;;;;2.15;1.95;;;;;;;;;;5026810;28;20045;-60
2023/09/08 02:36:43;;;;;;;1.85;1.75;;;;;;;;;;5026247;28;20049;-61
2023/09/08 02:39:10;;;;;;;1.88;1.75;;;;;;;;;;5026609;28;20065;-60
2023/09/08 02:41:36;;;;;;;1.55;1.45;;;;;;;;;;5025264;28;20049;-60
2023/09/08 02:44:02;;;;;;;2.20;2.00;;;;;;;;;;5026479;28;20485;-60
2023/09/08 02:46:28;;;;;;;1.77;1.67;;;;;;;;;;5025868;28;20045;-61
2023/09/08 02:48:54;;;;;;;2.10;1.90;;;;;;;;;;5026229;28;20103;-60
2023/09/08 02:51:20;;;;;;;1.55;1.45;;;;;;;;;;5026759;28;20412;-60
2023/09/08 02:53:46;;;;;;;1.50;1.40;;;;;;;;;;5024539;28;20085;-60
2023/09/08 02:56:12;;;;;;;2.00;1.90;;;;;;;;;;5026479;28;20042;-60
2023/09/08 02:58:38;;;;;;;2.03;1.92;;;;;;;;;;5024471;28;20045;-61
2023/09/08 03:01:13;;;;;;;1.85;1.75;;;;;;;;;;5019781;28;20099;-61
2023/09/08 03:03:39;;;;;;;1.45;1.35;;;;;;;;;;5026042;28;20045;-61
2023/09/08 03:06:05;;;;;;;2.00;1.60;;;;;;;;;;5021430;28;20045;-60
2023/09/08 03:08:31;;;;;;;2.50;1.90;;;;;;;;;;5022420;28;20056;-60
2023/09/08 03:10:57;;;;;;;1.83;1.70;;;;;;;;;;5022261;28;20037;-60
2023/09/08 03:13:23;;;;;;;1.80;1.70;;;;;;;;;;5019216;28;20045;-60
2023/09/08 03:15:49;;;;;;;1.80;1.70;;;;;;;;;;5021055;28;20045;-60
2023/09/08 03:18:15;;;;;;;2.20;2.00;;;;;;;;;;5025515;28;20040;-60
2023/09/08 03:20:41;;;;;;;2.05;1.85;;;;;;;;;;5024106;28;20041;-60
2023/09/08 03:23:08;;;;;;;1.98;1.77;;;;;;;;;;5026351;28;20094;-60
2023/09/08 03:25:34;;;;;;;2.17;1.98;;;;;;;;;;5021337;28;20469;-60
2023/09/08 03:28:00;;;;;;;1.80;1.70;;;;;;;;;;5019392;28;20099;-60
2023/09/08 03:30:26;;;;;;;2.08;1.98;;;;;;;;;;5024835;28;20060;-60
2023/09/08 03:32:52;;;;;;;1.90;1.80;;;;;;;;;;5020851;28;20045;-60
2023/09/08 03:35:18;;;;;;;2.03;1.83;;;;;;;;;;5023829;28;20045;-60
2023/09/08 03:37:44;;;;;;;1.40;1.30;;;;;;;;;;5025748;28;20037;-60
2023/09/08 03:40:10;;;;;;;1.98;1.88;;;;;;;;;;5025768;28;20056;-60
2023/09/08 03:42:36;;;;;;;2.17;2.00;;;;;;;;;;5023036;28;20045;-60
2023/09/08 03:45:02;;;;;;;2.08;1.88;;;;;;;;;;5024224;28;20041;-60
2023/09/08 03:47:28;;;;;;;1.77;1.67;;;;;;;;;;5021988;28;20057;-60
2023/09/08 03:49:54;;;;;;;1.90;1.80;;;;;;;;;;5023985;28;20390;-60
2023/09/08 03:52:20;;;;;;;1.70;1.60;;;;;;;;;;5025038;28;20494;-60
2023/09/08 03:54:46;;;;;;;1.80;1.70;;;;;;;;;;5025426;28;20169;-60
2023/09/08 03:57:12;;;;;;;2.05;1.95;;;;;;;;;;5024696;28;20104;-60
2023/09/08 03:59:38;;;;;;;2.88;2.65;;;;;;;;;;5025371;28;20045;-60
2023/09/08 04:02:04;;;;;;;2.33;2.13;;;;;;;;;;5024308;28;20033;-61
2023/09/08 04:04:30;;;;;;;2.10;2.00;;;;;;;;;;5024695;28;20056;-60
2023/09/08 04:06:56;;;;;;;2.50;2.30;;;;;;;;;;5024819;28;20543;-60
2023/09/08 04:09:22;;;;;;;2.42;2.22;;;;;;;;;;5025993;28;20069;-60
2023/09/08 04:11:48;;;;;;;2.95;2.63;;;;;;;;;;5028295;28;20127;-60
2023/09/08 04:14:14;;;;;;;2.13;2.03;;;;;;;;;;5029184;28;20100;-60
2023/09/08 04:16:40;;;;;;;2.05;1.85;;;;;;;;;;5027780;28;20044;-60
2023/09/08 04:19:06;;;;;;;1.85;1.75;;;;;;;;;;5028495;28;20033;-60
2023/09/08 04:21:33;;;;;;;2.45;2.25;;;;;;;;;;5029128;28;20421;-60
2023/09/08 04:23:59;;;;;;;5.55;2.22;;;;;;;;;;5028069;28;20880;-60
2023/09/08 04:26:25;;;;;;;2.33;2.05;;;;;;;;;;5028470;28;20847;-60
2023/09/08 04:28:51;;;;;;;2.72;2.53;;;;;;;;;;5028332;28;20069;-60
2023/09/08 04:31:18;;;;;;;2.53;2.30;;;;;;;;;;5028500;28;20045;-60
2023/09/08 04:33:44;;;;;;;2.70;2.50;;;;;;;;;;5029268;28;20037;-60
2023/09/08 04:36:11;;;;;;;2.33;2.20;;;;;;;;;;5029460;28;20041;-60
2023/09/08 04:38:37;;;;;;;2.45;2.35;;;;;;;;;;5027941;28;20041;-60
2023/09/08 04:41:03;;;;;;;2.70;2.50;;;;;;;;;;5028751;28;20044;-60
2023/09/08 04:43:29;;;;;;;2.45;2.28;;;;;;;;;;5027796;28;20041;-60
2023/09/08 04:45:55;;;;;;;2.00;1.90;;;;;;;;;;5027717;28;20080;-60
2023/09/08 04:48:21;;;;;;;2.85;2.65;;;;;;;;;;5028799;28;20682;-60
2023/09/08 04:50:47;;;;;;;3.97;2.03;;;;;;;;;;5028350;28;20045;-60
2023/09/08 04:53:13;;;;;;;2.33;2.13;;;;;;;;;;5028525;28;20044;-60
2023/09/08 04:55:39;;;;;;;2.30;2.20;;;;;;;;;;5028444;28;20029;-60
2023/09/08 04:58:05;;;;;;;2.17;2.08;;;;;;;;;;5028491;28;20120;-60
2023/09/08 05:00:31;;;;;;;1.92;1.83;;;;;;;;;;5027798;28;20052;-60
2023/09/08 05:02:57;;;;;;;2.28;2.08;;;;;;;;;;5028971;28;20040;-60
2023/09/08 05:05:23;;;;;;;3.85;3.53;;;;;;;;;;5028248;28;20037;-60
2023/09/08 05:07:50;;;;;;;3.75;3.45;;;;;;;;;;5027738;28;20524;-60
2023/09/08 05:10:16;;;;;;;3.72;3.42;;;;;;;;;;5028445;28;20108;-60
2023/09/08 05:12:43;;;;;;;5.90;3.20;;;;;;;;;;5026917;28;20046;-60
2023/09/08 05:15:14;;;;;;;3.90;3.60;;;;;;;;;;5027738;28;20045;-60
2023/09/08 05:17:40;;;;;;;4.13;3.83;;;;;;;;;;5028225;28;20045;-60
2023/09/08 05:20:07;;;;;;;2.88;2.67;;;;;;;;;;5026343;28;20044;-60
2023/09/08 05:22:33;;;;;;;2.75;2.55;;;;;;;;;;5021705;28;20490;-60
2023/09/08 05:24:59;;;;;;;2.60;2.40;;;;;;;;;;5027830;28;20129;-60
2023/09/08 05:27:25;;;;;;;2.45;2.25;;;;;;;;;;5025965;28;20041;-60
2023/09/08 05:29:51;;;;;;;2.90;2.70;;;;;;;;;;5027180;28;20041;-60
2023/09/08 05:32:17;;;;;;;3.00;2.80;;;;;;;;;;5024437;28;20099;-61
2023/09/08 05:34:43;;;;;;;3.53;3.22;;;;;;;;;;5023573;28;20038;-60
2023/09/08 05:37:09;;;;;;;2.72;2.53;;;;;;;;;;5026217;28;20053;-60
2023/09/08 05:39:35;;;;;;;2.90;2.70;;;;;;;;;;5027713;28;20424;-60
2023/09/08 05:42:01;;;;;;;2.50;2.30;;;;;;;;;;5027169;28;20040;-60
2023/09/08 05:44:27;;;;;;;2.05;1.95;;;;;;;;;;5027483;28;20041;-60
2023/09/08 05:46:53;;;;;;;2.40;2.00;;;;;;;;;;5026784;28;20136;-60
2023/09/08 05:49:19;;;;;;;2.22;1.85;;;;;;;;;;5026595;28;20077;-59
2023/09/08 05:51:45;;;;;;;1.67;1.55;;;;;;;;;;5027579;28;20073;-59
2023/09/08 05:54:11;;;;;;;1.50;1.40;;;;;;;;;;5024526;28;20794;-60
2023/09/08 05:56:38;;;;;;;2.13;2.03;;;;;;;;;;5026645;28;20045;-60
2023/09/08 05:59:04;;;;;;;2.38;2.28;;;;;;;;;;5027021;28;20481;-60
2023/09/08 06:01:31;;;;;;;2.40;2.20;;;;;;;;;;5027341;28;20536;-60
2023/09/08 06:03:57;;;;;;;2.00;1.77;;;;;;;;;;5026269;28;20057;-61
2023/09/08 06:06:25;;;;;;;1.63;1.52;;;;;;;;;;5027423;28;20120;-60
2023/09/08 06:08:51;;;;;;;1.98;1.88;;;;;;;;;;5020446;28;20053;-60
2023/09/08 06:11:17;;;;;;;1.70;1.60;;;;;;;;;;5026718;28;20363;-60
2023/09/08 06:13:43;;;;;;;1.73;1.40;;;;;;;;;;5027459;28;20037;-60
2023/09/08 06:16:09;;;;;;;2.70;2.50;;;;;;;;;;5026425;28;20048;-60
2023/09/08 06:18:39;;;;;;;2.17;2.08;;;;;;;;;;5025840;28;20041;-60
2023/09/08 06:21:06;;;;;;;1.48;1.38;;;;;;;;;;5026843;28;20835;-60
2023/09/08 06:23:33;;;;;;;2.22;2.13;;;;;;;;;;5026200;28;20115;-60
2023/09/08 06:26:00;;;;;;;2.17;2.00;;;;;;;;;;5026661;28;20060;-61
2023/09/08 06:28:27;;;;;;;2.22;1.85;;;;;;;;;;5026973;28;20045;-60
2023/09/08 06:30:54;;;;;;;1.80;1.70;;;;;;;;;;5015246;28;20044;-60
2023/09/08 06:33:20;;;;;;;1.33;1.23;;;;;;;;;;5020986;28;20039;-60
2023/09/08 06:35:46;;;;;;;1.50;1.40;;;;;;;;;;5026087;28;20040;-59
2023/09/08 06:38:12;;;;;;;1.70;1.60;;;;;;;;;;5026076;28;20493;-60
2023/09/08 06:40:38;;;;;;;2.60;2.40;;;;;;;;;;5022957;28;20048;-60
2023/09/08 06:43:04;;;;;;;2.40;2.20;;;;;;;;;;5026132;28;20042;-60
2023/09/08 06:45:30;;;;;;;1.88;1.77;;;;;;;;;;5025440;28;20041;-60
2023/09/08 06:47:57;;;;;;;2.45;2.33;;;;;;;;;;5024055;28;20382;-60
2023/09/08 06:50:23;;;;;;;2.80;2.60;;;;;;;;;;5025638;28;20124;-60
2023/09/08 06:52:52;;;;;;;2.80;2.60;;;;;;;;;;5023808;28;20492;-61
2023/09/08 06:55:19;;;;;;;2.85;2.65;;;;;;;;;;5025883;28;20072;-60
2023/09/08 06:57:46;;;;;;;3.10;2.90;;;;;;;;;;5025217;28;20121;-59
2023/09/08 07:00:12;;;;;;;3.40;3.17;;;;;;;;;;5015642;28;20041;-60
2023/09/08 07:02:39;;;;;;;3.53;3.22;;;;;;;;;;5021734;28;20077;-60
2023/09/08 07:05:08;;;;;;;3.45;3.15;;;;;;;;;;5026225;28;20768;-60
2023/09/08 07:07:37;;;;;;;3.70;3.38;;;;;;;;;;5025571;28;20521;-59
2023/09/08 07:10:04;;;;;;;3.38;3.08;;;;;;;;;;5026525;28;20056;-60
2023/09/08 07:12:30;;;;;;;2.75;2.55;;;;;;;;;;5025663;28;20137;-60
2023/09/08 07:14:56;;;;;;;2.13;2.03;;;;;;;;;;5026017;28;20741;-60
2023/09/08 07:17:23;;;;;;;5.95;2.80;;;;;;;;;;5021764;28;20076;-60
2023/09/08 07:19:49;;;;;;;3.53;3.22;;;;;;;;;;5024809;28;20041;-60
2023/09/08 07:22:16;;;;;;;2.92;2.72;;;;;;;;;;5025898;28;20497;-60
2023/09/08 07:24:42;;;;;;;3.00;2.80;;;;;;;;;;5025728;28;20041;-60
2023/09/08 07:27:08;;;;;;;2.28;2.10;;;;;;;;;;5018976;28;20045;-60
2023/09/08 07:29:34;;;;;;;2.10;2.00;;;;;;;;;;5024433;28;20062;-60
2023/09/08 07:32:00;;;;;;;2.80;2.60;;;;;;;;;;5024567;28;20038;-60
2023/09/08 07:34:26;;;;;;;2.20;2.00;;;;;;;;;;5024527;28;20037;-60
2023/09/08 07:36:52;;;;;;;2.35;2.20;;;;;;;;;;5025191;28;20397;-60
2023/09/08 07:39:18;;;;;;;2.35;2.15;;;;;;;;;;5025897;28;20048;-59
2023/09/08 07:41:44;;;;;;;1.90;1.80;;;;;;;;;;5024892;28;20046;-61
2023/09/08 07:44:10;;;;;;;2.10;2.00;;;;;;;;;;5025527;28;20041;-62
2023/09/08 07:46:36;;;;;;;2.55;2.38;;;;;;;;;;5025174;28;20063;-63
2023/09/08 07:49:03;;;;;;;3.70;3.40;;;;;;;;;;5024874;28;20106;-60
2023/09/08 07:51:29;;;;;;;3.08;2.88;;;;;;;;;;5025004;28;20052;-62
2023/09/08 07:53:55;;;;;;;2.65;2.45;;;;;;;;;;5024614;28;20397;-62
2023/09/08 07:56:22;;;;;;;2.53;2.33;;;;;;;;;;5024340;28;20045;-61
2023/09/08 07:58:48;;;;;;;2.38;2.17;;;;;;;;;;5024711;28;20045;-61
2023/09/08 08:01:15;;;;;;;2.58;2.38;;;;;;;;;;5024267;28;20044;-61
2023/09/08 08:03:41;;;;;;;2.60;2.40;;;;;;;;;;5023619;28;20056;-61
2023/09/08 08:06:07;;;;;;;2.25;2.15;;;;;;;;;;5022455;28;20555;-61
2023/09/08 08:08:38;;;;;;;2.00;1.85;;;;;;;;;;5025493;28;20086;-61
2023/09/08 08:11:09;;;;;;;2.80;2.25;;;;;;;;;;5025219;28;20045;-61
2023/09/08 08:13:35;;;;;;;2.40;2.22;;;;;;;;;;5025833;28;20187;-62
2023/09/08 08:16:01;;;;;;;1.83;1.73;;;;;;;;;;5024838;28;20537;-62
2023/09/08 08:18:27;;;;;;;2.90;2.70;;;;;;;;;;5023900;28;20091;-62
2023/09/08 08:20:53;;;;;;;2.80;2.50;;;;;;;;;;5024329;28;20041;-62
2023/09/08 08:23:19;;;;;;;2.15;1.95;;;;;;;;;;5024342;28;20556;-62
2023/09/08 08:25:45;;;;;;;2.40;2.22;;;;;;;;;;5024026;28;20094;-62
2023/09/08 08:28:11;;;;;;;2.65;2.50;;;;;;;;;;5024981;28;20064;-62
2023/09/08 08:30:37;;;;;;;2.20;2.10;;;;;;;;;;5023410;28;20076;-62
2023/09/08 08:33:04;;;;;;;3.22;2.92;;;;;;;;;;5024575;28;20134;-62
2023/09/08 08:35:30;;;;;;;2.50;2.30;;;;;;;;;;5016254;28;20038;-61
2023/09/08 08:37:58;;;;;;;3.05;2.85;;;;;;;;;;5014958;28;20053;-61
2023/09/08 08:40:26;;;;;;;2.60;2.40;;;;;;;;;;5015952;28;20116;-62
2023/09/08 08:42:55;;;;;;;2.97;2.78;;;;;;;;;;5023920;28;20552;-62
2023/09/08 08:45:23;;;;;;;2.38;2.28;;;;;;;;;;5023326;28;20067;-62
2023/09/08 08:47:50;;;;;;;2.58;2.45;;;;;;;;;;5018364;28;20137;-62
2023/09/08 08:50:17;;;;;;;3.05;2.75;;;;;;;;;;5022644;28;20498;-62
2023/09/08 08:52:43;;;;;;;2.72;2.53;;;;;;;;;;5018873;28;20389;-62
2023/09/08 08:55:09;;;;;;;2.70;2.03;;;;;;;;;;5019248;28;20089;-62
2023/09/08 08:57:37;;;;;;;2.42;2.22;;;;;;;;;;5025201;28;20044;-62
2023/09/08 09:00:08;;;;;;;2.38;2.17;;;;;;;;;;5022917;28;20041;-62
2023/09/08 09:02:34;;;;;;;2.60;2.40;;;;;;;;;;5026597;28;20524;-62
2023/09/08 09:05:01;;;;;;;2.33;2.20;;;;;;;;;;5024492;28;20041;-62
2023/09/08 09:07:27;;;;;;;2.72;2.53;;;;;;;;;;5026082;28;20524;-61
2023/09/08 09:09:54;;;;;;;2.10;2.00;;;;;;;;;;5019605;28;20049;-61
2023/09/08 09:12:21;;;;;;;1.90;1.80;;;;;;;;;;5026090;28;20038;-61
2023/09/08 09:14:47;;;;;;;2.50;2.30;;;;;;;;;;5024909;28;20046;-62
2023/09/08 09:17:14;;;;;;;3.63;2.30;;;;;;;;;;5029015;28;20041;-62
2023/09/08 09:19:41;;;;;;;2.47;2.28;;;;;;;;;;5027524;28;20164;-62
2023/09/08 09:22:07;;;;;;;5.40;2.55;;;;;;;;;;5028290;28;20581;-62
2023/09/08 09:24:34;;;;;;;2.80;2.60;;;;;;;;;;5028317;28;20034;-62
2023/09/08 09:27:01;;;;;;;2.53;2.33;;;;;;;;;;5027148;28;20091;-62
2023/09/08 09:29:28;;;;;;;3.03;2.83;;;;;;;;;;5019535;28;20041;-61
2023/09/08 09:31:55;;;;;;;3.30;3.00;;;;;;;;;;5019020;28;20760;-61
2023/09/08 09:34:21;;;;;;;3.25;2.60;;;;;;;;;;5015902;28;20042;-61
2023/09/08 09:36:49;;;;;;;3.08;2.78;;;;;;;;;;5024064;28;20090;-61
2023/09/08 09:39:19;;;;;;;2.50;2.30;;;;;;;;;;5026062;28;20128;-61
2023/09/08 09:41:46;;;;;;;4.43;2.45;;;;;;;;;;5027500;28;20048;-61
2023/09/08 09:44:12;;;;;;;3.25;2.95;;;;;;;;;;5027456;28;20425;-62
2023/09/08 09:46:38;;;;;;;3.50;3.25;;;;;;;;;;5019155;28;20052;-62
2023/09/08 09:49:04;;;;;;;2.70;2.50;;;;;;;;;;5017830;28;20040;-62
2023/09/08 09:51:30;;;;;;;3.03;2.33;;;;;;;;;;5027869;28;20045;-62
2023/09/08 09:53:58;;;;;;;3.10;2.90;;;;;;;;;;5027733;28;20072;-62
2023/09/08 09:56:24;;;;;;;3.15;2.80;;;;;;;;;;5026412;28;20053;-62
2023/09/08 09:58:53;;;;;;;2.65;2.45;;;;;;;;;;5025128;28;20088;-62
2023/09/08 10:01:20;;;;;;;2.20;2.05;;;;;;;;;;5022523;28;20052;-62
2023/09/08 10:03:48;;;;;;;2.88;2.60;;;;;;;;;;5027707;28;20056;-62
2023/09/08 10:06:15;;;;;;;2.90;2.70;;;;;;;;;;5022104;28;20076;-62
2023/09/08 10:08:42;;;;;;;2.55;2.35;;;;;;;;;;5019821;28;20607;-61
2023/09/08 10:11:09;;;;;;;2.80;2.60;;;;;;;;;;5017834;28;20049;-62
2023/09/08 10:13:47;;;;;;;2.58;2.38;;;;;;;;;;5014311;28;20588;-62
2023/09/08 10:16:16;;;;;;;2.70;2.20;;;;;;;;;;5022280;28;20060;-62
2023/09/08 10:18:45;;;;;;;2.92;2.53;;;;;;;;;;5021764;28;20378;-62
2023/09/08 10:21:11;;;;;;;2.92;2.72;;;;;;;;;;5016681;28;20081;-62
2023/09/08 10:23:47;;;;;;;3.25;2.95;;;;;;;;;;5018148;28;20049;-62
2023/09/08 10:26:16;;;;;;;3.00;2.80;;;;;;;;;;5023258;28;20509;-62
2023/09/08 10:28:42;;;;;;;3.03;2.80;;;;;;;;;;5025586;28;20560;-62
2023/09/08 10:31:09;;;;;;;3.08;2.80;;;;;;;;;;5022341;28;20500;-63
2023/09/08 10:33:35;;;;;;;3.53;3.33;;;;;;;;;;5025592;28;20040;-62
2023/09/08 10:36:03;;;;;;;3.35;3.10;;;;;;;;;;5020924;28;20043;-62
2023/09/08 10:38:32;;;;;;;2.85;2.65;;;;;;;;;;5020470;28;20113;-62
2023/09/08 10:41:16;;;;;;;3.20;3.00;;;;;;;;;;5022747;28;20076;-62
2023/09/08 10:44:01;;;;;;;3.33;2.70;;;;;;;;;;5017835;28;20043;-62
2023/09/08 10:46:27;;;;;;;2.65;2.45;;;;;;;;;;5022031;28;20053;-62
2023/09/08 10:48:54;;;;;;;2.72;2.53;;;;;;;;;;5024837;28;20044;-63
2023/09/08 10:51:23;;;;;;;2.50;2.30;;;;;;;;;;5023413;28;20065;-62
2023/09/08 10:53:49;;;;;;;2.95;2.70;;;;;;;;;;5022798;28;20037;-62
2023/09/08 10:56:16;;;;;;;2.85;2.40;;;;;;;;;;5025874;28;20046;-62
2023/09/08 10:58:45;;;;;;;2.65;2.45;;;;;;;;;;5022674;28;20041;-62
2023/09/08 11:01:16;;;;;;;2.35;2.25;;;;;;;;;;5025788;28;20052;-62
2023/09/08 11:03:42;;;;;;;3.70;2.45;;;;;;;;;;5024598;28;20048;-62
2023/09/08 11:06:08;;;;;;;2.63;2.30;;;;;;;;;;5024465;28;20037;-62
2023/09/08 11:08:35;;;;;;;2.72;2.53;;;;;;;;;;5023959;28;20053;-62
2023/09/08 11:11:02;;;;;;;2.75;2.40;;;;;;;;;;5025426;28;20053;-62
2023/09/08 11:13:28;;;;;;;3.00;2.75;;;;;;;;;;5015855;28;20068;-62
2023/09/08 11:15:54;;;;;;;2.85;2.65;;;;;;;;;;5024672;28;20076;-62
2023/09/08 11:18:27;;;;;;;2.45;2.35;;;;;;;;;;5025021;28;20049;-62
2023/09/08 11:20:53;;;;;;;3.47;2.67;;;;;;;;;;5022320;28;20382;-62
2023/09/08 11:23:19;;;;;;;3.03;2.80;;;;;;;;;;5022000;28;20038;-62
2023/09/08 11:25:45;;;;;;;2.53;2.33;;;;;;;;;;5025302;28;20038;-62
2023/09/08 11:28:12;;;;;;;2.65;2.45;;;;;;;;;;5026369;28;20215;-62
2023/09/08 11:30:39;;;;;;;3.08;2.50;;;;;;;;;;5018126;28;20048;-62
2023/09/08 11:33:14;;;;;;;3.10;2.90;;;;;;;;;;5024077;28;20045;-62
2023/09/08 11:35:40;;;;;;;3.00;2.60;;;;;;;;;;5024144;28;20041;-62
2023/09/08 11:38:06;;;;;;;2.83;2.47;;;;;;;;;;5020278;28;20038;-62
2023/09/08 11:40:34;;;;;;;2.72;2.53;;;;;;;;;;5023864;28;20107;-62
2023/09/08 11:43:00;;;;;;;2.20;2.10;;;;;;;;;;5019855;28;20056;-62
2023/09/08 11:45:27;;;;;;;2.67;2.47;;;;;;;;;;5024641;28;20088;-62
2023/09/08 11:47:53;;;;;;;2.30;2.20;;;;;;;;;;5023317;28;20195;-62
2023/09/08 11:50:20;;;;;;;2.15;1.92;;;;;;;;;;5023785;28;20042;-62
2023/09/08 11:52:50;;;;;;;2.55;2.35;;;;;;;;;;5024151;28;20087;-62
2023/09/08 11:55:17;;;;;;;2.25;2.13;;;;;;;;;;5023276;28;20038;-62
2023/09/08 11:57:44;;;;;;;2.40;2.13;;;;;;;;;;5020376;28;20042;-62
2023/09/08 12:00:14;;;;;;;4.35;2.95;;;;;;;;;;5024478;28;20504;-63
2023/09/08 12:02:40;;;;;;;2.40;2.17;;;;;;;;;;5024032;28;20088;-63
2023/09/08 12:05:06;;;;;;;2.40;2.20;;;;;;;;;;5018766;28;20092;-63
2023/09/08 12:07:32;;;;;;;2.03;1.88;;;;;;;;;;5024814;28;20547;-63
2023/09/08 12:09:58;;;;;;;2.78;2.55;;;;;;;;;;5024960;28;20422;-63
2023/09/08 12:12:25;;;;;;;2.72;2.05;;;;;;;;;;5017047;28;20058;-63
2023/09/08 12:14:51;;;;;;;2.53;2.35;;;;;;;;;;5025142;28;20068;-63
2023/09/08 12:17:18;;;;;;;2.75;2.55;;;;;;;;;;5025267;28;20045;-62
2023/09/08 12:19:44;;;;;;;2.97;2.15;;;;;;;;;;5021004;28;20461;-62
2023/09/08 12:22:12;;;;;;;2.30;2.10;;;;;;;;;;5024314;28;20461;-62
2023/09/08 12:24:58;;;;;;;2.40;2.20;;;;;;;;;;5023207;28;20041;-62
2023/09/08 12:27:25;;;;;;;3.15;2.40;;;;;;;;;;5024627;28;20033;-62
2023/09/08 12:29:58;;;;;;;2.35;2.20;;;;;;;;;;5024337;28;20041;-62
2023/09/08 12:32:25;;;;;;;2.60;2.40;;;;;;;;;;5023951;28;20042;-62
2023/09/08 12:34:54;;;;;;;2.58;2.38;;;;;;;;;;5022160;28;20092;-62
2023/09/08 12:37:21;;;;;;;2.60;2.38;;;;;;;;;;5024436;28;20042;-62
2023/09/08 12:39:47;;;;;;;3.72;2.45;;;;;;;;;;5026959;28;20220;-62
2023/09/08 12:42:13;;;;;;;2.33;2.13;;;;;;;;;;5018041;28;20042;-62
2023/09/08 12:44:40;;;;;;;2.90;2.40;;;;;;;;;;5022976;28;20458;-62
2023/09/08 12:47:06;;;;;;;2.20;2.10;;;;;;;;;;5018191;28;20054;-62
2023/09/08 12:49:32;;;;;;;2.80;2.60;;;;;;;;;;5027356;28;20049;-62
2023/09/08 12:51:58;;;;;;;4.63;2.70;;;;;;;;;;5021808;28;20042;-62
2023/09/08 12:54:25;;;;;;;2.40;2.20;;;;;;;;;;5023234;28;20044;-62
2023/09/08 12:56:51;;;;;;;2.45;2.25;;;;;;;;;;5023061;28;20065;-62
2023/09/08 12:59:17;;;;;;;3.15;2.47;;;;;;;;;;5026236;28;20052;-62
2023/09/08 13:01:43;;;;;;;2.30;2.10;;;;;;;;;;5020473;28;20045;-62
2023/09/08 13:04:09;;;;;;;2.80;2.60;;;;;;;;;;5021139;28;20041;-62
2023/09/08 13:06:35;;;;;;;2.65;2.03;;;;;;;;;;5022395;28;20140;-62
2023/09/08 13:09:01;;;;;;;1.90;1.80;;;;;;;;;;5024370;28;20033;-63
2023/09/08 13:11:27;;;;;;;2.30;2.20;;;;;;;;;;5022646;28;20903;-62
2023/09/08 13:13:54;;;;;;;2.00;1.90;;;;;;;;;;5021583;28;20091;-62
2023/09/08 13:16:20;;;;;;;1.60;1.50;;;;;;;;;;5022991;28;20037;-62
2023/09/08 13:18:46;;;;;;;1.88;1.70;;;;;;;;;;5018721;28;20041;-62
2023/09/08 13:21:12;;;;;;;2.25;2.15;;;;;;;;;;5022856;28;20065;-62
2023/09/08 13:23:38;;;;;;;2.10;2.00;;;;;;;;;;5023538;28;20073;-62
2023/09/08 13:26:04;;;;;;;2.35;2.15;;;;;;;;;;5024034;28;20439;-62
2023/09/08 13:28:30;;;;;;;2.50;2.30;;;;;;;;;;5010115;28;20100;-62
2023/09/08 13:30:56;;;;;;;2.10;2.00;;;;;;;;;;5017807;28;20584;-62
2023/09/08 13:33:22;;;;;;;2.45;2.35;;;;;;;;;;5017952;28;20045;-62
2023/09/08 13:35:48;;;;;;;2.58;2.38;;;;;;;;;;5026809;28;20044;-62
2023/09/08 13:38:14;;;;;;;2.40;2.20;;;;;;;;;;5023508;28;20049;-62
2023/09/08 13:40:41;;;;;;;2.17;1.98;;;;;;;;;;5026534;28;20791;-62
2023/09/08 13:43:07;;;;;;;2.88;2.67;;;;;;;;;;5024997;28;20120;-62
2023/09/08 13:45:33;;;;;;;2.13;1.92;;;;;;;;;;5019517;28;20053;-62
2023/09/08 13:47:59;;;;;;;1.90;1.80;;;;;;;;;;5022611;28;20489;-62
2023/09/08 13:50:25;;;;;;;1.73;1.63;;;;;;;;;;5025250;28;20146;-62
2023/09/08 13:52:52;;;;;;;1.80;1.70;;;;;;;;;;5026662;28;20163;-62
2023/09/08 13:55:23;;;;;;;2.47;2.28;;;;;;;;;;5023108;28;20056;-62
2023/09/08 13:57:49;;;;;;;1.50;1.40;;;;;;;;;;5025751;28;20116;-62
2023/09/08 14:00:16;;;;;;;1.95;1.85;;;;;;;;;;5021042;28;20486;-62
2023/09/08 14:02:42;;;;;;;2.13;2.03;;;;;;;;;;5021168;28;20044;-62
2023/09/08 14:05:08;;;;;;;2.50;2.30;;;;;;;;;;5027155;28;20116;-62
2023/09/08 14:07:34;;;;;;;2.13;2.03;;;;;;;;;;5024445;28;20129;-62
2023/09/08 14:10:01;;;;;;;2.60;2.40;;;;;;;;;;5027373;28;20378;-62
2023/09/08 14:12:27;;;;;;;2.17;2.03;;;;;;;;;;5027079;28;20084;-62
2023/09/08 14:14:53;;;;;;;1.83;1.73;;;;;;;;;;5026514;28;20036;-62
2023/09/08 14:17:20;;;;;;;2.28;2.08;;;;;;;;;;5027354;28;20115;-62
2023/09/08 14:19:46;;;;;;;2.42;2.22;;;;;;;;;;5027131;28;20048;-62
2023/09/08 14:22:13;;;;;;;2.00;1.90;;;;;;;;;;5026987;28;20540;-62
2023/09/08 14:24:39;;;;;;;1.98;1.83;;;;;;;;;;5026186;28;20462;-62
2023/09/08 14:27:05;;;;;;;1.95;1.85;;;;;;;;;;5026750;28;20083;-62
2023/09/08 14:29:33;;;;;;;1.63;1.52;;;;;;;;;;5025736;28;20045;-62
2023/09/08 14:31:59;;;;;;;2.20;2.00;;;;;;;;;;5026838;28;20055;-62
2023/09/08 14:34:25;;;;;;;2.00;1.90;;;;;;;;;;5025385;28;20113;-62
2023/09/08 14:36:51;;;;;;;1.83;1.73;;;;;;;;;;5016676;28;20634;-62
2023/09/08 14:39:18;;;;;;;1.50;1.40;;;;;;;;;;5026063;28;20052;-63